Terminal Aerodrome Forecast
Issued by NWS Rapid City, SD

Home | Current Version | Previous Version | Text Only | Print | Product List | Glossary On
Versions: 1 2 3 4 5 6 7 8 9 10 11 12 13 14 15 16 17 18 19 20 21
000
FTUS43 KUNR 240528
TAFRAP
TAF
KRAP 240528Z 2406/2506 03012KT P6SM SCT010 OVC017
      TEMPO 2406/2408 3SM -SN OVC008
     FM240900 01010KT 1SM BR OVC005
     FM241500 36009KT P6SM OVC020
     FM241900 03008KT P6SM OVC050
     FM250000 17006KT P6SM OVC090=

USA.gov is the U.S. government's official web portal to all federal, state and local government web resources and services.